createdAt,value
2019-03-03T00:02:29.190Z,6.03
2019-03-03T00:08:00.668Z,6.31
2019-03-03T00:10:30.019Z,6.19
2019-03-03T00:12:59.363Z,5.98
2019-03-03T00:15:28.708Z,6.24
2019-03-03T00:21:00.210Z,6.26
2019-03-03T00:23:29.556Z,6.06
2019-03-03T00:25:58.903Z,6.00
2019-03-03T00:28:28.252Z,6.31
2019-03-03T00:30:57.596Z,6.45
2019-03-03T00:33:26.924Z,6.10
2019-03-03T00:35:56.270Z,6.08
2019-03-03T00:38:44.369Z,6.45
2019-03-03T00:47:37.372Z,6.21
2019-03-03T00:50:26.315Z,6.42
2019-03-03T00:53:15.102Z,6.56
2019-03-03T00:55:52.744Z,6.19
2019-03-03T00:58:41.593Z,6.03
2019-03-03T01:01:29.592Z,5.88
2019-03-03T01:04:17.811Z,5.87
2019-03-03T01:07:05.898Z,5.99
2019-03-03T01:09:40.227Z,6.49
2019-03-03T01:12:28.320Z,5.85
2019-03-03T01:15:16.418Z,5.92
2019-03-03T01:18:04.574Z,5.94
2019-03-03T01:20:52.760Z,6.26
2019-03-03T01:23:40.768Z,5.83
2019-03-03T01:26:10.087Z,5.73
2019-03-03T01:28:39.521Z,5.72
2019-03-03T01:31:08.030Z,6.06
2019-03-03T01:33:36.663Z,5.94
2019-03-03T01:36:06.008Z,5.96
2019-03-03T01:38:35.331Z,5.72
2019-03-03T01:41:06.295Z,5.71
2019-03-03T01:43:53.893Z,5.82
2019-03-03T01:46:23.232Z,5.53
2019-03-03T01:48:52.573Z,5.60
2019-03-03T01:51:21.912Z,5.63
2019-03-03T01:53:51.246Z,5.95
2019-03-03T01:56:31.730Z,5.84
2019-03-03T01:59:00.351Z,5.68
2019-03-03T02:01:29.694Z,5.75
2019-03-03T02:03:59.039Z,5.94
2019-03-03T02:06:28.368Z,6.05
2019-03-03T02:08:57.728Z,6.28
2019-03-03T02:11:27.159Z,6.09
2019-03-03T02:13:56.493Z,5.91
2019-03-03T02:16:25.926Z,5.85
2019-03-03T02:18:55.268Z,5.92
2019-03-03T02:21:24.602Z,6.12
2019-03-03T02:23:53.241Z,6.13
2019-03-03T02:26:21.872Z,6.15
2019-03-03T02:28:51.202Z,6.02
2019-03-03T02:31:20.561Z,5.89
2019-03-03T02:33:49.895Z,5.95
2019-03-03T02:36:19.222Z,5.87
2019-03-03T02:38:48.548Z,5.55
2019-03-03T02:41:17.868Z,5.59
2019-03-03T02:43:46.615Z,5.61
2019-03-03T02:46:15.940Z,5.99
2019-03-03T02:48:45.279Z,5.78
2019-03-03T02:51:13.908Z,5.95
2019-03-03T02:53:42.548Z,5.78
2019-03-03T02:56:11.890Z,5.87
2019-03-03T02:58:41.227Z,5.61
2019-03-03T03:01:30.011Z,5.55
2019-03-03T03:07:00.122Z,5.90
2019-03-03T03:09:38.497Z,5.53
2019-03-03T03:12:13.323Z,5.60
2019-03-03T03:15:01.435Z,5.92
2019-03-03T03:17:49.435Z,5.98
2019-03-03T03:20:37.584Z,5.90
2019-03-03T03:23:26.356Z,5.64
2019-03-03T03:26:15.150Z,5.58
2019-03-03T03:29:03.119Z,5.47
2019-03-03T03:31:51.324Z,5.87
2019-03-03T03:34:24.896Z,5.78
2019-03-03T03:37:13.032Z,5.78
2019-03-03T03:39:48.141Z,5.82
2019-03-03T03:45:38.533Z,5.74
2019-03-03T03:48:26.726Z,5.60
2019-03-03T03:51:14.715Z,5.35
2019-03-03T03:53:54.543Z,5.51
2019-03-03T03:59:45.912Z,5.40
2019-03-03T04:02:34.226Z,5.70
2019-03-03T04:08:10.533Z,5.49
2019-03-03T04:10:59.330Z,5.41
2019-03-03T04:13:47.425Z,5.44
2019-03-03T04:16:35.535Z,5.50
2019-03-03T04:19:24.328Z,5.43
2019-03-03T04:22:04.971Z,5.37
2019-03-03T04:24:48.851Z,5.56
2019-03-03T04:27:33.019Z,5.54
2019-03-03T04:30:21.888Z,5.30
2019-03-03T04:33:01.811Z,5.60
2019-03-03T04:35:49.905Z,5.72
2019-03-03T04:38:30.424Z,5.48
2019-03-03T04:41:18.532Z,5.31
2019-03-03T04:44:07.329Z,5.49
2019-03-03T04:46:41.270Z,5.29
2019-03-03T04:49:30.069Z,5.35
2019-03-03T04:52:18.148Z,5.41
2019-03-03T04:55:06.233Z,5.29
2019-03-03T04:57:54.381Z,5.22
2019-03-03T05:00:41.579Z,5.27
2019-03-03T05:03:26.782Z,5.27
2019-03-03T05:06:14.893Z,5.37
2019-03-03T05:09:02.872Z,5.51
2019-03-03T05:12:32.872Z,5.44
2019-03-03T05:15:20.959Z,5.65
2019-03-03T05:17:55.603Z,5.41
2019-03-03T05:20:24.231Z,5.43
2019-03-03T05:22:52.876Z,5.43
2019-03-03T05:25:22.971Z,5.51
2019-03-03T05:28:10.640Z,5.72
2019-03-03T05:30:39.988Z,5.59
2019-03-03T05:33:09.347Z,5.34
2019-03-03T05:35:38.734Z,5.60
2019-03-03T05:38:08.066Z,5.71
2019-03-03T05:40:37.394Z,5.77
2019-03-03T05:43:06.729Z,5.63
2019-03-03T05:45:35.354Z,5.50
2019-03-03T05:48:04.682Z,5.60
2019-03-03T05:50:34.070Z,5.88
2019-03-03T05:53:03.454Z,5.59
2019-03-03T05:55:32.784Z,5.66
2019-03-03T05:58:02.119Z,5.73
2019-03-03T06:00:31.464Z,5.78
2019-03-03T06:03:00.083Z,5.78
2019-03-03T06:05:29.419Z,5.96
2019-03-03T06:07:58.757Z,6.09
2019-03-03T06:10:28.107Z,6.17
2019-03-03T06:12:56.722Z,5.94
2019-03-03T06:15:25.348Z,5.52
2019-03-03T06:17:54.683Z,5.90
2019-03-03T06:20:24.016Z,5.51
2019-03-03T06:22:53.381Z,5.52
2019-03-03T06:25:22.727Z,5.60
2019-03-03T06:27:52.058Z,5.81
2019-03-03T06:30:21.412Z,5.91
2019-03-03T06:32:50.749Z,5.71
2019-03-03T06:35:19.576Z,5.85
2019-03-03T06:37:48.124Z,5.65
2019-03-03T06:40:17.452Z,5.70
2019-03-03T06:42:46.799Z,5.77
2019-03-03T06:45:16.165Z,5.78
2019-03-03T06:47:45.506Z,5.87
2019-03-03T06:50:14.939Z,5.94
2019-03-03T06:52:44.264Z,5.76
2019-03-03T06:55:13.613Z,5.99
2019-03-03T06:57:42.937Z,6.32
2019-03-03T07:00:31.666Z,6.43
2019-03-03T07:03:01.028Z,6.31
2019-03-03T07:05:30.366Z,5.79
2019-03-03T07:07:58.910Z,5.85
2019-03-03T07:10:28.248Z,5.81
2019-03-03T07:12:57.577Z,5.91
2019-03-03T07:15:26.906Z,5.79
2019-03-03T07:17:56.295Z,5.85
2019-03-03T07:20:25.652Z,5.88
2019-03-03T07:22:54.991Z,6.02
2019-03-03T07:25:24.318Z,5.98
2019-03-03T07:27:53.157Z,6.15
2019-03-03T07:30:21.688Z,6.27
2019-03-03T07:33:10.559Z,5.93
2019-03-03T07:35:39.957Z,6.00
2019-03-03T07:38:09.322Z,6.02
2019-03-03T07:40:50.494Z,6.19
2019-03-03T07:43:19.239Z,6.42
2019-03-03T07:45:49.008Z,6.70
2019-03-03T07:48:17.777Z,6.89
2019-03-03T07:50:47.951Z,6.71
2019-03-03T07:53:17.312Z,6.51
2019-03-03T07:55:45.949Z,6.66
2019-03-03T07:58:14.492Z,6.53
2019-03-03T08:00:43.832Z,6.66
2019-03-03T08:03:13.163Z,7.85
2019-03-03T08:05:42.517Z,7.76
2019-03-03T08:08:11.856Z,7.70
2019-03-03T08:10:41.198Z,7.39
2019-03-03T08:13:10.832Z,7.55
2019-03-03T08:15:40.225Z,7.32
2019-03-03T08:18:09.561Z,8.13
2019-03-03T08:20:38.907Z,8.02
2019-03-03T08:23:07.445Z,7.49
2019-03-03T08:25:36.074Z,7.73
2019-03-03T08:28:04.804Z,7.95
2019-03-03T08:30:34.240Z,8.07
2019-03-03T08:33:03.692Z,8.54
2019-03-03T08:35:33.026Z,8.52
2019-03-03T08:38:02.363Z,8.49
2019-03-03T08:40:31.719Z,8.37
2019-03-03T08:43:20.525Z,7.81
2019-03-03T08:46:09.380Z,8.46
2019-03-03T08:48:52.092Z,8.91
2019-03-03T08:51:40.972Z,8.83
2019-03-03T08:54:29.782Z,8.54
2019-03-03T08:57:18.584Z,8.53
2019-03-03T09:00:06.899Z,8.58
2019-03-03T09:02:55.758Z,8.94
2019-03-03T09:05:44.561Z,8.28
2019-03-03T09:08:33.365Z,8.13
2019-03-03T09:11:22.170Z,8.18
2019-03-03T09:14:10.986Z,8.08
2019-03-03T09:16:59.139Z,8.07
2019-03-03T09:19:47.157Z,8.13
2019-03-03T09:22:35.260Z,8.49
2019-03-03T09:25:24.004Z,8.24
2019-03-03T09:28:01.221Z,8.39
2019-03-03T09:30:42.037Z,8.70
2019-03-03T09:33:30.224Z,9.16
2019-03-03T09:36:18.275Z,8.59
2019-03-03T09:39:06.457Z,8.59
2019-03-03T09:41:55.271Z,9.00
2019-03-03T09:44:43.368Z,9.37
2019-03-03T09:47:32.271Z,9.10
2019-03-03T09:50:20.368Z,8.93
2019-03-03T09:53:08.649Z,8.81
2019-03-03T09:55:57.486Z,8.88
2019-03-03T09:58:45.599Z,8.96
2019-03-03T10:01:34.409Z,9.05
2019-03-03T10:04:23.322Z,9.13
2019-03-03T10:07:13.574Z,9.03
2019-03-03T10:10:01.420Z,8.99
2019-03-03T10:12:49.442Z,8.91
2019-03-03T10:15:38.257Z,9.16
2019-03-03T10:18:27.156Z,9.08
2019-03-03T10:21:16.068Z,9.04
2019-03-03T10:24:04.935Z,9.00
2019-03-03T10:26:53.740Z,9.33
2019-03-03T10:29:41.755Z,9.49
2019-03-03T10:32:29.916Z,9.43
2019-03-03T10:35:18.715Z,9.42
2019-03-03T10:38:07.532Z,9.31
2019-03-03T10:40:55.563Z,9.16
2019-03-03T10:43:43.957Z,9.27
2019-03-03T10:46:32.090Z,9.35
2019-03-03T10:49:20.933Z,9.34
2019-03-03T10:52:00.001Z,9.33
2019-03-03T10:54:42.605Z,9.38
2019-03-03T10:57:21.788Z,9.50
2019-03-03T11:00:09.903Z,9.51
2019-03-03T11:02:58.928Z,9.57
2019-03-03T11:05:47.140Z,9.82
2019-03-03T11:08:35.340Z,9.74
2019-03-03T11:11:39.239Z,9.65
2019-03-03T11:14:24.005Z,9.73
2019-03-03T11:17:12.808Z,9.87
2019-03-03T11:20:00.913Z,9.87
2019-03-03T11:22:49.199Z,10.03
2019-03-03T11:25:37.304Z,9.96
2019-03-03T11:31:08.089Z,9.62
2019-03-03T11:33:56.297Z,9.78
2019-03-03T11:36:32.225Z,10.07
2019-03-03T11:39:21.278Z,9.84
2019-03-03T11:42:09.613Z,9.90
2019-03-03T11:44:57.728Z,9.90
2019-03-03T11:47:45.859Z,9.86
2019-03-03T11:50:34.865Z,9.90
2019-03-03T11:53:23.769Z,9.90
2019-03-03T11:56:12.624Z,9.99
2019-03-03T11:58:48.895Z,10.13
2019-03-03T12:01:37.156Z,10.08
2019-03-03T12:04:26.020Z,9.80
2019-03-03T12:07:14.191Z,9.83
2019-03-03T12:10:03.007Z,9.80
2019-03-03T12:12:51.200Z,9.95
2019-03-03T12:15:29.810Z,9.80
2019-03-03T12:18:05.607Z,10.07
2019-03-03T12:20:54.538Z,10.33
2019-03-03T12:23:43.405Z,10.28
2019-03-03T12:26:32.414Z,10.29
2019-03-03T12:29:20.686Z,10.05
2019-03-03T12:32:08.890Z,10.42
2019-03-03T12:34:58.190Z,10.43
2019-03-03T12:37:47.014Z,10.30
2019-03-03T12:40:35.816Z,10.54
2019-03-03T12:43:23.817Z,10.43
2019-03-03T12:46:11.943Z,10.53
2019-03-03T12:48:51.145Z,10.12
2019-03-03T12:51:39.949Z,10.05
2019-03-03T12:54:28.169Z,10.32
2019-03-03T12:57:16.965Z,10.51
2019-03-03T13:00:05.079Z,10.52
2019-03-03T13:02:53.290Z,10.29
2019-03-03T13:05:41.316Z,10.29
2019-03-03T13:08:18.992Z,10.41
2019-03-03T13:11:07.793Z,10.39
2019-03-03T13:13:55.903Z,10.45
2019-03-03T13:16:44.029Z,10.30
2019-03-03T13:19:32.847Z,10.37
2019-03-03T13:22:20.976Z,10.49
2019-03-03T13:25:09.951Z,10.48
2019-03-03T13:27:58.862Z,10.39
2019-03-03T13:30:34.193Z,10.31
2019-03-03T13:35:55.108Z,10.38
2019-03-03T13:38:43.906Z,10.32
2019-03-03T13:41:31.910Z,10.39
2019-03-03T13:44:00.690Z,10.30
2019-03-03T13:46:30.155Z,10.37
2019-03-03T13:48:59.490Z,10.16
2019-03-03T13:51:28.422Z,10.15
2019-03-03T13:53:56.964Z,10.29
2019-03-03T13:56:26.330Z,10.28
2019-03-03T14:01:39.060Z,10.14
2019-03-03T14:04:08.489Z,10.18
2019-03-03T14:06:37.062Z,10.21
2019-03-03T14:12:09.795Z,10.06
2019-03-03T14:14:38.439Z,9.86
2019-03-03T14:17:08.536Z,9.90
2019-03-03T14:19:37.927Z,9.84
2019-03-03T14:22:07.272Z,10.09
2019-03-03T14:24:36.655Z,9.97
2019-03-03T14:27:10.465Z,9.93
2019-03-03T14:29:55.245Z,10.02
2019-03-03T14:32:24.606Z,10.23
2019-03-03T14:34:53.972Z,10.14
2019-03-03T14:37:22.648Z,9.94
2019-03-03T14:40:12.549Z,10.17
2019-03-03T14:42:42.003Z,9.93
2019-03-03T14:45:13.143Z,10.30
2019-03-03T14:47:41.894Z,9.90
2019-03-03T14:50:15.254Z,10.04
2019-03-03T14:52:45.178Z,9.94
2019-03-03T14:55:17.308Z,9.88
2019-03-03T14:57:46.059Z,9.82
2019-03-03T15:00:34.746Z,9.93
2019-03-03T15:03:05.970Z,10.06
2019-03-03T15:05:34.822Z,9.98
2019-03-03T15:08:03.706Z,9.97
2019-03-03T15:10:32.326Z,9.88
2019-03-03T15:16:04.045Z,9.77
2019-03-03T15:18:33.384Z,9.91
2019-03-03T15:21:02.828Z,10.13
2019-03-03T15:23:32.181Z,10.26
2019-03-03T15:29:04.209Z,10.04
2019-03-03T15:34:34.961Z,9.92
2019-03-03T15:39:44.562Z,9.87
2019-03-03T15:42:13.215Z,10.01
2019-03-03T15:44:42.663Z,10.17
2019-03-03T15:47:12.016Z,10.09
2019-03-03T15:49:41.360Z,10.04
2019-03-03T15:52:10.685Z,10.03
2019-03-03T15:54:39.322Z,10.09
2019-03-03T15:57:08.856Z,9.85
2019-03-03T15:59:37.495Z,9.81
2019-03-03T16:05:09.868Z,9.81
2019-03-03T16:07:39.271Z,9.82
2019-03-03T16:10:09.594Z,9.83
2019-03-03T16:12:39.026Z,9.82
2019-03-03T16:15:09.284Z,9.78
2019-03-03T16:17:37.939Z,9.84
2019-03-03T16:23:09.404Z,9.79
2019-03-03T16:25:59.269Z,9.54
2019-03-03T16:28:28.592Z,9.30
2019-03-03T16:34:00.316Z,9.53
2019-03-03T16:36:28.959Z,9.49
2019-03-03T16:41:59.685Z,9.67
2019-03-03T16:44:28.252Z,9.58
2019-03-03T16:46:57.613Z,9.57
2019-03-03T16:49:26.951Z,9.43
2019-03-03T16:51:56.810Z,9.30
2019-03-03T16:54:26.147Z,9.40
2019-03-03T16:56:55.652Z,9.53
2019-03-03T16:59:24.207Z,9.38
2019-03-03T17:01:53.545Z,9.54
2019-03-03T17:04:22.908Z,9.72
2019-03-03T17:06:52.413Z,9.72
2019-03-03T17:09:21.074Z,9.46
2019-03-03T17:11:50.458Z,9.43
2019-03-03T17:14:19.014Z,9.28
2019-03-03T17:16:48.361Z,9.23
2019-03-03T17:19:17.697Z,9.33
2019-03-03T17:21:47.059Z,9.16
2019-03-03T17:24:16.406Z,9.25
2019-03-03T17:26:45.767Z,9.10
2019-03-03T17:29:15.202Z,9.39
2019-03-03T17:31:43.895Z,9.09
2019-03-03T17:34:13.454Z,9.13
2019-03-03T17:36:41.999Z,9.19
2019-03-03T17:39:11.532Z,9.04
2019-03-03T17:41:40.942Z,9.20
2019-03-03T17:44:10.286Z,9.07
2019-03-03T17:46:39.628Z,9.11
2019-03-03T17:49:08.981Z,9.00
2019-03-03T17:51:38.447Z,8.93
2019-03-03T17:54:07.799Z,8.91
2019-03-03T17:56:37.133Z,8.78
2019-03-03T17:59:05.781Z,8.70
2019-03-03T18:01:34.687Z,8.58
2019-03-03T18:04:04.183Z,8.89
2019-03-03T18:06:38.690Z,8.88
2019-03-03T18:09:22.840Z,8.91
2019-03-03T18:11:52.193Z,8.80
2019-03-03T18:14:21.532Z,8.64
2019-03-03T18:16:51.576Z,8.78
2019-03-03T18:19:20.933Z,8.88
2019-03-03T18:21:50.292Z,8.83
2019-03-03T18:24:19.010Z,8.69
2019-03-03T18:26:47.755Z,8.84
2019-03-03T18:29:16.540Z,8.83
2019-03-03T18:31:45.863Z,8.73
2019-03-03T18:34:15.215Z,8.37
2019-03-03T18:36:44.794Z,8.53
2019-03-03T18:39:26.249Z,8.53
2019-03-03T18:41:54.985Z,8.55
2019-03-03T18:44:24.469Z,8.28
2019-03-03T18:46:53.828Z,8.50
2019-03-03T18:49:23.807Z,8.53
2019-03-03T18:51:53.531Z,8.52
2019-03-03T18:54:22.877Z,8.47
2019-03-03T18:56:52.293Z,8.13
2019-03-03T18:59:21.639Z,8.05
2019-03-03T19:01:51.006Z,8.27
2019-03-03T19:04:19.751Z,8.50
2019-03-03T19:06:48.433Z,8.58
2019-03-03T19:12:32.722Z,8.27
2019-03-03T19:15:02.367Z,8.35
2019-03-03T19:17:31.739Z,8.32
2019-03-03T19:20:00.371Z,8.37
2019-03-03T19:22:29.060Z,8.43
2019-03-03T19:24:58.682Z,8.39
2019-03-03T19:27:28.030Z,8.29
2019-03-03T19:29:57.385Z,8.23
2019-03-03T19:32:26.723Z,8.29
2019-03-03T19:34:56.057Z,8.30
2019-03-03T19:37:24.711Z,8.27
2019-03-03T19:39:54.052Z,7.98
2019-03-03T19:42:23.417Z,7.89
2019-03-03T19:44:52.282Z,7.76
2019-03-03T19:47:20.930Z,7.93
2019-03-03T19:49:50.519Z,7.81
2019-03-03T19:52:39.611Z,7.95
2019-03-03T19:55:09.869Z,8.17
2019-03-03T19:57:50.851Z,8.16
2019-03-03T20:00:22.772Z,7.92
2019-03-03T20:02:51.509Z,7.61
2019-03-03T20:05:20.859Z,7.74
2019-03-03T20:07:50.308Z,7.74
2019-03-03T20:10:19.966Z,7.86
2019-03-03T20:15:51.635Z,7.80
2019-03-03T20:18:21.100Z,7.81
2019-03-03T20:20:50.449Z,7.84
2019-03-03T20:23:19.918Z,7.88
2019-03-03T20:25:49.268Z,7.89
2019-03-03T20:28:18.708Z,7.88
2019-03-03T20:33:27.561Z,7.90
2019-03-03T20:35:56.872Z,7.86
2019-03-03T20:38:25.524Z,7.56
2019-03-03T20:40:54.982Z,7.64
2019-03-03T20:43:23.626Z,7.61
2019-03-03T20:45:53.273Z,7.74
2019-03-03T20:48:22.720Z,7.60
2019-03-03T20:50:52.192Z,7.44
2019-03-03T20:53:20.825Z,7.46
2019-03-03T20:55:50.189Z,7.57
2019-03-03T20:58:19.535Z,7.63
2019-03-03T21:00:49.182Z,7.54
2019-03-03T21:03:17.812Z,7.70
2019-03-03T21:05:46.461Z,7.45
2019-03-03T21:08:15.091Z,7.50
2019-03-03T21:10:44.417Z,7.50
2019-03-03T21:13:13.838Z,7.47
2019-03-03T21:15:43.136Z,7.54
2019-03-03T21:18:11.778Z,7.65
2019-03-03T21:20:41.111Z,7.46
2019-03-03T21:23:13.331Z,7.38
2019-03-03T21:25:42.862Z,7.48
2019-03-03T21:28:12.196Z,7.32
2019-03-03T21:30:40.736Z,7.50
2019-03-03T21:33:10.088Z,7.51
2019-03-03T21:35:38.633Z,7.23
2019-03-03T21:38:07.251Z,7.24
2019-03-03T21:40:36.602Z,7.52
2019-03-03T21:43:05.980Z,7.56
2019-03-03T21:45:35.335Z,7.72
2019-03-03T21:50:47.494Z,7.50
2019-03-03T21:53:16.824Z,7.51
2019-03-03T21:55:45.561Z,7.50
2019-03-03T21:58:14.897Z,7.51
2019-03-03T22:00:44.450Z,7.38
2019-03-03T22:03:13.796Z,7.27
2019-03-03T22:05:43.150Z,7.46
2019-03-03T22:08:12.587Z,7.76
2019-03-03T22:10:41.943Z,7.78
2019-03-03T22:13:11.735Z,7.67
2019-03-03T22:15:40.376Z,7.56
2019-03-03T22:18:09.805Z,7.46
2019-03-03T22:20:39.242Z,7.35
2019-03-03T22:23:08.575Z,7.29
2019-03-03T22:25:38.179Z,7.45
2019-03-03T22:28:07.509Z,7.62
2019-03-03T22:30:36.830Z,7.46
2019-03-03T22:33:06.175Z,7.37
2019-03-03T22:35:35.513Z,7.39
2019-03-03T22:38:04.850Z,7.50
2019-03-03T22:40:33.482Z,7.39
2019-03-03T22:43:02.150Z,7.40
2019-03-03T22:45:31.503Z,7.38
2019-03-03T22:48:00.816Z,7.13
2019-03-03T22:50:44.563Z,7.01
2019-03-03T22:53:19.959Z,7.09
2019-03-03T22:55:49.300Z,7.04
2019-03-03T22:58:18.637Z,6.91
2019-03-03T23:01:17.442Z,6.90
2019-03-03T23:04:24.823Z,7.01
2019-03-03T23:07:08.481Z,6.91
2019-03-03T23:10:10.544Z,6.73
2019-03-03T23:13:04.417Z,6.78
2019-03-03T23:16:11.834Z,7.13
2019-03-03T23:19:22.399Z,7.05
2019-03-03T23:22:30.527Z,7.07
2019-03-03T23:25:38.625Z,7.17
2019-03-03T23:28:07.971Z,7.12
2019-03-03T23:30:36.619Z,6.94
2019-03-03T23:33:05.945Z,6.87
2019-03-03T23:35:35.299Z,6.74
2019-03-03T23:38:04.639Z,6.80
2019-03-03T23:40:33.993Z,6.73
2019-03-03T23:43:03.460Z,6.69
2019-03-03T23:45:32.799Z,6.65
2019-03-03T23:48:02.146Z,6.81
2019-03-03T23:50:32.615Z,6.70
2019-03-03T23:53:01.236Z,6.44
2019-03-03T23:55:29.873Z,6.57
2019-03-03T23:57:58.788Z,6.87
